createdAt,value
2018-09-11T00:01:19.469Z,17.20
2018-09-11T00:04:05.474Z,17.20
2018-09-11T00:06:44.213Z,17.10
2018-09-11T00:09:23.177Z,17.00
2018-09-11T00:11:57.893Z,16.90
2018-09-11T00:14:39.707Z,16.90
2018-09-11T00:17:12.617Z,16.80
2018-09-11T00:19:46.297Z,16.60
2018-09-11T00:22:20.427Z,16.60
2018-09-11T00:24:57.054Z,16.50
2018-09-11T00:27:30.793Z,16.50
2018-09-11T00:30:01.967Z,16.40
2018-09-11T00:32:36.807Z,16.40
2018-09-11T00:35:09.308Z,16.40
2018-09-11T00:37:40.473Z,16.30
2018-09-11T00:40:09.616Z,16.20
2018-09-11T00:42:40.489Z,16.10
2018-09-11T00:45:11.261Z,16.10
2018-09-11T00:47:41.346Z,16.00
2018-09-11T00:50:13.618Z,16.00
2018-09-11T00:52:44.189Z,16.10
2018-09-11T00:55:13.608Z,16.10
2018-09-11T00:57:47.658Z,16.10
2018-09-11T01:00:16.392Z,16.10
2018-09-11T01:02:45.218Z,16.00
2018-09-11T01:05:15.212Z,16.00
2018-09-11T01:07:44.976Z,15.90
2018-09-11T01:10:15.415Z,16.00
2018-09-11T01:12:45.026Z,16.00
2018-09-11T01:15:15.827Z,15.90
2018-09-11T01:17:50.000Z,15.90
2018-09-11T01:20:21.381Z,15.90
2018-09-11T01:22:55.742Z,15.90
2018-09-11T01:25:29.124Z,15.80
2018-09-11T01:27:59.651Z,15.90
2018-09-11T01:30:31.545Z,15.80
2018-09-11T01:33:00.873Z,15.80
2018-09-11T01:35:29.598Z,15.90
2018-09-11T01:37:58.077Z,15.90
2018-09-11T01:40:26.697Z,15.90
2018-09-11T01:42:55.375Z,15.90
2018-09-11T01:45:23.898Z,15.90
2018-09-11T01:47:52.394Z,15.90
2018-09-11T01:50:20.855Z,15.80
2018-09-11T01:52:49.345Z,15.90
2018-09-11T01:55:17.804Z,16.00
2018-09-11T01:57:46.416Z,15.90
2018-09-11T02:00:17.411Z,15.90
2018-09-11T02:02:46.537Z,16.00
2018-09-11T02:05:14.934Z,15.90
2018-09-11T02:07:44.093Z,15.80
2018-09-11T02:10:13.180Z,15.80
2018-09-11T02:12:41.697Z,15.80
2018-09-11T02:15:11.093Z,15.90
2018-09-11T02:17:40.205Z,15.90
2018-09-11T02:20:08.599Z,16.00
2018-09-11T02:22:37.282Z,16.00
2018-09-11T02:25:05.855Z,15.90
2018-09-11T02:27:34.422Z,16.00
2018-09-11T02:30:02.935Z,16.00
2018-09-11T02:32:31.381Z,15.90
2018-09-11T02:34:59.918Z,15.90
2018-09-11T02:37:28.263Z,15.90
2018-09-11T02:39:56.712Z,15.90
2018-09-11T02:42:25.028Z,15.90
2018-09-11T02:44:53.376Z,15.80
2018-09-11T02:47:21.640Z,15.80
2018-09-11T02:49:49.902Z,15.80
2018-09-11T02:52:18.217Z,15.80
2018-09-11T02:54:46.616Z,15.80
2018-09-11T02:57:14.877Z,15.70
2018-09-11T02:59:43.165Z,15.80
2018-09-11T03:02:11.667Z,15.90
2018-09-11T03:04:40.037Z,15.80
2018-09-11T03:07:08.575Z,15.80
2018-09-11T03:09:37.007Z,15.80
2018-09-11T03:12:05.517Z,15.70
2018-09-11T03:14:34.098Z,15.80
2018-09-11T03:17:02.485Z,15.70
2018-09-11T03:19:30.872Z,15.70
2018-09-11T03:21:59.300Z,15.70
2018-09-11T03:24:27.767Z,15.80
2018-09-11T03:26:56.199Z,15.70
2018-09-11T03:29:24.621Z,15.70
2018-09-11T03:31:52.967Z,15.70
2018-09-11T03:34:21.341Z,15.80
2018-09-11T03:36:49.776Z,15.70
2018-09-11T03:39:18.149Z,15.70
2018-09-11T03:41:46.540Z,15.60
2018-09-11T03:44:15.097Z,15.50
2018-09-11T03:46:43.329Z,15.60
2018-09-11T03:49:11.795Z,15.60
2018-09-11T03:51:40.104Z,15.70
2018-09-11T03:54:08.423Z,15.60
2018-09-11T03:56:36.808Z,15.60
2018-09-11T03:59:05.478Z,15.60
2018-09-11T04:01:33.897Z,15.60
2018-09-11T04:04:02.186Z,15.60
2018-09-11T04:06:30.459Z,15.60
2018-09-11T04:08:58.755Z,15.60
2018-09-11T04:11:27.001Z,15.40
2018-09-11T04:13:55.269Z,15.50
2018-09-11T04:16:23.546Z,15.40
2018-09-11T04:18:51.799Z,15.50
2018-09-11T04:21:20.047Z,15.50
2018-09-11T04:23:48.297Z,15.50
2018-09-11T04:26:16.614Z,15.50
2018-09-11T04:28:44.903Z,15.50
2018-09-11T04:31:13.183Z,15.40
2018-09-11T04:33:41.447Z,15.30
2018-09-11T04:36:09.705Z,15.40
2018-09-11T04:38:37.954Z,15.50
2018-09-11T04:41:06.252Z,15.50
2018-09-11T04:43:34.547Z,15.50
2018-09-11T04:46:02.811Z,15.40
2018-09-11T04:48:31.080Z,15.50
2018-09-11T04:50:59.327Z,15.40
2018-09-11T04:53:27.579Z,15.40
2018-09-11T04:55:55.847Z,15.30
2018-09-11T04:58:24.076Z,15.30
2018-09-11T05:00:52.371Z,15.30
2018-09-11T05:03:20.660Z,15.40
2018-09-11T05:05:48.924Z,15.40
2018-09-11T05:08:17.195Z,15.40
2018-09-11T05:10:45.442Z,15.30
2018-09-11T05:13:13.726Z,15.40
2018-09-11T05:15:41.999Z,15.30
2018-09-11T05:18:10.389Z,15.30
2018-09-11T05:20:38.659Z,15.40
2018-09-11T05:23:06.908Z,15.50
2018-09-11T05:25:35.216Z,15.60
2018-09-11T05:28:03.492Z,15.50
2018-09-11T05:30:31.784Z,15.50
2018-09-11T05:33:00.106Z,15.50
2018-09-11T05:35:28.375Z,15.60
2018-09-11T05:37:56.628Z,15.70
2018-09-11T05:40:24.905Z,15.80
2018-09-11T05:42:53.152Z,15.80
2018-09-11T05:45:21.378Z,15.80
2018-09-11T05:47:49.653Z,15.80
2018-09-11T05:50:17.878Z,15.80
2018-09-11T05:52:46.136Z,15.90
2018-09-11T05:55:14.370Z,15.90
2018-09-11T05:57:42.637Z,15.90
2018-09-11T06:00:10.951Z,16.00
2018-09-11T06:02:39.245Z,16.00
2018-09-11T06:05:07.544Z,16.00
2018-09-11T06:07:35.803Z,16.20
2018-09-11T06:10:04.103Z,16.10
2018-09-11T06:12:32.466Z,16.20
2018-09-11T06:15:00.895Z,16.20
2018-09-11T06:17:29.197Z,16.10
2018-09-11T06:19:57.458Z,16.20
2018-09-11T06:22:25.794Z,16.30
2018-09-11T06:24:54.072Z,16.40
2018-09-11T06:27:22.332Z,16.40
2018-09-11T06:29:50.599Z,16.50
2018-09-11T06:32:18.906Z,16.60
2018-09-11T06:34:47.207Z,16.50
2018-09-11T06:37:15.491Z,16.60
2018-09-11T06:39:43.788Z,16.70
2018-09-11T06:42:12.057Z,16.70
2018-09-11T06:44:40.414Z,16.80
2018-09-11T06:47:08.727Z,16.80
2018-09-11T06:49:36.935Z,16.80
2018-09-11T06:52:05.206Z,16.80
2018-09-11T06:54:33.544Z,17.00
2018-09-11T06:57:01.834Z,17.20
2018-09-11T06:59:30.314Z,17.30
2018-09-11T07:01:58.719Z,17.30
2018-09-11T07:04:26.859Z,17.50
2018-09-11T07:06:55.132Z,17.70
2018-09-11T07:09:23.399Z,17.80
2018-09-11T07:11:51.696Z,18.00
2018-09-11T07:14:20.014Z,18.20
2018-09-11T07:16:48.289Z,18.30
2018-09-11T07:19:16.571Z,18.40
2018-09-11T07:21:44.978Z,18.50
2018-09-11T07:24:13.223Z,18.70
2018-09-11T07:26:41.512Z,18.90
2018-09-11T07:29:09.799Z,18.90
2018-09-11T07:31:38.179Z,19.00
2018-09-11T07:34:06.482Z,19.20
2018-09-11T07:36:34.763Z,19.10
2018-09-11T07:39:03.018Z,18.90
2018-09-11T07:41:31.284Z,18.90
2018-09-11T07:43:59.511Z,19.20
2018-09-11T07:46:27.739Z,19.30
2018-09-11T07:48:56.064Z,19.30
2018-09-11T07:51:24.339Z,19.20
2018-09-11T07:53:52.616Z,19.30
2018-09-11T07:56:20.858Z,19.60
2018-09-11T07:58:49.152Z,19.80
2018-09-11T08:01:17.552Z,19.80
2018-09-11T08:03:45.752Z,19.60
2018-09-11T08:06:14.006Z,19.70
2018-09-11T08:08:42.267Z,19.90
2018-09-11T08:11:11.108Z,20.40
2018-09-11T08:13:39.418Z,20.70
2018-09-11T08:16:07.679Z,20.60
2018-09-11T08:18:35.945Z,20.80
2018-09-11T08:21:04.300Z,20.90
2018-09-11T08:23:32.573Z,20.90
2018-09-11T08:26:00.801Z,20.90
2018-09-11T08:28:29.043Z,21.10
2018-09-11T08:30:57.332Z,21.20
2018-09-11T08:33:25.580Z,21.50
2018-09-11T08:35:53.891Z,21.20
2018-09-11T08:38:22.197Z,20.90
2018-09-11T08:40:50.496Z,21.20
2018-09-11T08:43:18.879Z,21.30
2018-09-11T08:45:47.164Z,21.50
2018-09-11T08:48:15.457Z,21.90
2018-09-11T08:50:43.699Z,22.20
2018-09-11T08:53:11.996Z,22.30
2018-09-11T08:55:40.244Z,22.10
2018-09-11T08:58:08.507Z,22.30
2018-09-11T09:00:36.808Z,22.00
2018-09-11T09:03:05.806Z,22.50
2018-09-11T09:05:34.063Z,22.80
2018-09-11T09:08:02.295Z,23.30
2018-09-11T09:10:30.551Z,23.10
2018-09-11T09:12:59.961Z,23.70
2018-09-11T09:15:28.214Z,23.30
2018-09-11T09:17:56.470Z,23.40
2018-09-11T09:20:24.802Z,23.60
2018-09-11T09:22:53.083Z,23.80
2018-09-11T09:25:21.355Z,23.70
2018-09-11T09:27:49.579Z,23.90
2018-09-11T09:30:17.882Z,23.90
2018-09-11T09:32:46.130Z,23.90
2018-09-11T09:35:14.378Z,23.70
2018-09-11T09:37:42.643Z,23.90
2018-09-11T09:40:10.939Z,23.90
2018-09-11T09:42:39.206Z,24.10
2018-09-11T09:45:08.564Z,24.00
2018-09-11T09:47:36.807Z,24.20
2018-09-11T09:50:05.101Z,24.30
2018-09-11T09:52:33.348Z,24.30
2018-09-11T09:55:01.671Z,24.20
2018-09-11T09:57:29.947Z,24.10
2018-09-11T09:59:58.252Z,23.70
2018-09-11T10:02:26.499Z,24.00
2018-09-11T10:04:55.222Z,24.30
2018-09-11T10:07:24.145Z,24.40
2018-09-11T10:09:53.055Z,24.50
2018-09-11T10:12:21.295Z,24.60
2018-09-11T10:14:49.565Z,24.70
2018-09-11T10:17:17.894Z,24.90
2018-09-11T10:19:46.218Z,24.60
2018-09-11T10:22:14.519Z,24.80
2018-09-11T10:24:42.797Z,24.90
2018-09-11T10:27:11.250Z,24.60
2018-09-11T10:29:39.567Z,24.80
2018-09-11T10:32:07.830Z,24.50
2018-09-11T10:34:36.131Z,24.60
2018-09-11T10:37:04.369Z,24.70
2018-09-11T10:39:32.700Z,24.60
2018-09-11T10:42:00.902Z,24.90
2018-09-11T10:44:29.246Z,24.90
2018-09-11T10:46:57.473Z,25.10
2018-09-11T10:49:25.726Z,25.30
2018-09-11T10:51:54.013Z,25.10
2018-09-11T10:54:22.233Z,25.70
2018-09-11T10:56:50.497Z,26.00
2018-09-11T10:59:18.750Z,26.00
2018-09-11T11:01:47.027Z,25.60
2018-09-11T11:04:15.285Z,25.70
2018-09-11T11:06:43.557Z,25.50
2018-09-11T11:09:11.914Z,25.60
2018-09-11T11:11:40.350Z,25.70
2018-09-11T11:14:08.772Z,25.80
2018-09-11T11:16:39.809Z,25.90
2018-09-11T11:19:08.187Z,25.90
2018-09-11T11:21:36.834Z,26.40
2018-09-11T11:24:05.383Z,26.30
2018-09-11T11:26:34.540Z,26.60
2018-09-11T11:29:04.217Z,26.30
2018-09-11T11:31:32.848Z,26.10
2018-09-11T11:34:01.396Z,26.20
2018-09-11T11:36:30.135Z,26.30
2018-09-11T11:38:58.744Z,26.00
2018-09-11T11:41:27.012Z,26.40
2018-09-11T11:43:55.274Z,26.50
2018-09-11T11:46:24.211Z,26.80
2018-09-11T11:48:52.551Z,26.60
2018-09-11T11:51:21.668Z,27.10
2018-09-11T11:53:50.368Z,26.70
2018-09-11T11:56:20.145Z,26.70
2018-09-11T11:58:48.418Z,26.80
2018-09-11T12:01:18.435Z,26.80
2018-09-11T12:03:47.492Z,26.50
2018-09-11T12:06:16.288Z,26.60
2018-09-11T12:08:44.772Z,26.80
2018-09-11T12:11:14.200Z,26.70
2018-09-11T12:13:43.042Z,26.50
2018-09-11T12:16:11.437Z,26.70
2018-09-11T12:18:39.942Z,26.90
2018-09-11T12:21:08.513Z,26.80
2018-09-11T12:23:37.053Z,26.50
2018-09-11T12:26:05.868Z,26.40
2018-09-11T12:28:34.109Z,26.70
2018-09-11T12:31:05.482Z,27.00
2018-09-11T12:33:35.232Z,26.90
2018-09-11T12:36:04.188Z,26.90
2018-09-11T12:38:32.524Z,27.20
2018-09-11T12:41:00.797Z,26.60
2018-09-11T12:43:29.158Z,26.50
2018-09-11T12:45:59.070Z,26.80
2018-09-11T12:48:28.396Z,27.00
2018-09-11T12:50:56.604Z,26.80
2018-09-11T12:53:25.047Z,27.00
2018-09-11T12:55:53.820Z,27.40
2018-09-11T12:58:22.394Z,27.40
2018-09-11T13:00:51.020Z,27.60
2018-09-11T13:03:19.409Z,28.10
2018-09-11T13:05:47.856Z,27.90
2018-09-11T13:08:16.280Z,27.50
2018-09-11T13:10:44.635Z,27.50
2018-09-11T13:13:12.987Z,27.70
2018-09-11T13:15:41.820Z,27.90
2018-09-11T13:18:10.251Z,28.10
2018-09-11T13:20:38.890Z,27.70
2018-09-11T13:23:08.051Z,27.90
2018-09-11T13:25:36.671Z,28.00
2018-09-11T13:28:05.614Z,28.00
2018-09-11T13:30:33.881Z,27.90
2018-09-11T13:33:02.161Z,27.80
2018-09-11T13:35:30.399Z,27.90
2018-09-11T13:37:58.858Z,27.90
2018-09-11T13:40:27.122Z,28.10
2018-09-11T13:42:58.672Z,28.20
2018-09-11T13:45:30.089Z,28.30
2018-09-11T13:47:58.461Z,28.30
2018-09-11T13:50:26.643Z,28.50
2018-09-11T13:52:54.984Z,28.50
2018-09-11T13:55:23.203Z,28.60
2018-09-11T13:57:51.461Z,28.80
2018-09-11T14:00:19.757Z,28.70
2018-09-11T14:02:48.524Z,28.70
2018-09-11T14:05:17.189Z,28.80
2018-09-11T14:07:45.529Z,28.90
2018-09-11T14:10:14.090Z,28.50
2018-09-11T14:12:42.490Z,28.40
2018-09-11T14:15:10.744Z,28.40
2018-09-11T14:17:39.046Z,28.70
2018-09-11T14:20:07.619Z,28.90
2018-09-11T14:22:36.054Z,29.30
2018-09-11T14:25:04.428Z,29.50
2018-09-11T14:27:32.691Z,29.40
2018-09-11T14:30:01.296Z,29.10
2018-09-11T14:32:29.841Z,28.50
2018-09-11T14:34:58.107Z,28.90
2018-09-11T14:37:26.432Z,28.70
2018-09-11T14:39:54.668Z,29.20
2018-09-11T14:42:22.989Z,29.20
2018-09-11T14:44:52.028Z,29.30
2018-09-11T14:47:20.337Z,29.60
2018-09-11T14:49:48.557Z,29.50
2018-09-11T14:52:18.556Z,29.90
2018-09-11T14:54:46.818Z,30.90
2018-09-11T14:57:18.646Z,31.10
2018-09-11T14:59:46.876Z,30.90
2018-09-11T15:02:15.129Z,31.20
2018-09-11T15:04:43.406Z,31.40
2018-09-11T15:07:11.652Z,31.60
2018-09-11T15:09:39.934Z,31.30
2018-09-11T15:12:08.184Z,31.00
2018-09-11T15:14:36.492Z,30.80
2018-09-11T15:17:04.817Z,31.20
2018-09-11T15:19:33.268Z,31.80
2018-09-11T15:22:01.575Z,31.80
2018-09-11T15:24:29.956Z,32.60
2018-09-11T15:26:58.214Z,31.50
2018-09-11T15:29:26.597Z,32.10
2018-09-11T15:31:54.918Z,32.70
2018-09-11T15:34:23.193Z,32.90
2018-09-11T15:36:51.687Z,33.50
2018-09-11T15:39:20.003Z,33.00
2018-09-11T15:41:48.307Z,33.20
2018-09-11T15:44:16.554Z,32.40
2018-09-11T15:46:44.814Z,32.70
2018-09-11T15:49:13.079Z,32.20
2018-09-11T15:51:41.574Z,32.00
2018-09-11T15:54:09.841Z,32.40
2018-09-11T15:56:38.125Z,32.30
2018-09-11T15:59:06.423Z,32.20
2018-09-11T16:01:35.163Z,32.30
2018-09-11T16:04:04.013Z,32.70
2018-09-11T16:06:32.284Z,32.60
2018-09-11T16:09:00.602Z,32.30
2018-09-11T16:11:28.944Z,32.90
2018-09-11T16:13:57.204Z,32.90
2018-09-11T16:16:25.485Z,33.30
2018-09-11T16:18:53.790Z,33.30
2018-09-11T16:21:22.472Z,32.80
2018-09-11T16:23:50.953Z,31.70
2018-09-11T16:26:19.405Z,31.60
2018-09-11T16:28:47.811Z,31.70
2018-09-11T16:31:16.146Z,31.40
2018-09-11T16:33:44.430Z,32.00
2018-09-11T16:36:12.751Z,32.00
2018-09-11T16:38:41.021Z,31.30
2018-09-11T16:41:09.465Z,30.60
2018-09-11T16:43:37.774Z,29.90
2018-09-11T16:46:06.053Z,29.10
2018-09-11T16:48:34.314Z,28.90
2018-09-11T16:51:02.591Z,28.80
2018-09-11T16:53:30.900Z,28.80
2018-09-11T16:55:59.111Z,28.90
2018-09-11T16:58:27.413Z,28.60
2018-09-11T17:00:55.659Z,28.60
2018-09-11T17:03:23.893Z,28.40
2018-09-11T17:05:52.120Z,28.40
2018-09-11T17:08:20.382Z,28.30
2018-09-11T17:10:48.678Z,28.10
2018-09-11T17:13:16.935Z,28.00
2018-09-11T17:15:45.164Z,28.00
2018-09-11T17:18:13.398Z,27.80
2018-09-11T17:20:41.682Z,27.70
2018-09-11T17:23:09.956Z,27.70
2018-09-11T17:25:38.287Z,27.90
2018-09-11T17:28:06.654Z,27.90
2018-09-11T17:30:34.904Z,27.60
2018-09-11T17:33:03.248Z,27.20
2018-09-11T17:35:31.550Z,27.30
2018-09-11T17:37:59.903Z,27.10
2018-09-11T17:40:28.184Z,27.10
2018-09-11T17:42:56.622Z,27.00
2018-09-11T17:45:24.799Z,27.10
2018-09-11T17:47:54.763Z,27.10
2018-09-11T17:50:23.109Z,26.90
2018-09-11T17:52:51.336Z,26.90
2018-09-11T17:55:19.680Z,26.80
2018-09-11T17:57:47.907Z,26.70
2018-09-11T18:00:16.180Z,26.50
2018-09-11T18:02:46.684Z,26.50
2018-09-11T18:05:14.950Z,26.50
2018-09-11T18:07:43.303Z,26.40
2018-09-11T18:10:11.590Z,26.40
2018-09-11T18:12:39.837Z,26.40
2018-09-11T18:15:08.477Z,26.30
2018-09-11T18:17:36.734Z,26.20
2018-09-11T18:20:05.155Z,26.10
2018-09-11T18:22:33.463Z,26.10
2018-09-11T18:25:01.768Z,26.00
2018-09-11T18:27:30.121Z,25.90
2018-09-11T18:29:58.681Z,26.00
2018-09-11T18:32:27.040Z,25.90
2018-09-11T18:34:55.560Z,25.80
2018-09-11T18:37:26.482Z,25.70
2018-09-11T18:39:54.688Z,25.60
2018-09-11T18:42:23.101Z,25.70
2018-09-11T18:44:51.397Z,25.50
2018-09-11T18:47:20.829Z,25.50
2018-09-11T18:49:49.207Z,25.40
2018-09-11T18:52:17.524Z,25.40
2018-09-11T18:54:45.839Z,25.30
2018-09-11T18:57:14.275Z,25.20
2018-09-11T18:59:42.583Z,25.20
2018-09-11T19:02:10.838Z,25.20
2018-09-11T19:04:39.111Z,25.20
2018-09-11T19:07:07.544Z,25.10
2018-09-11T19:09:36.014Z,25.00
2018-09-11T19:12:04.288Z,25.00
2018-09-11T19:14:32.547Z,25.00
2018-09-11T19:17:00.811Z,24.90
2018-09-11T19:19:29.217Z,24.80
2018-09-11T19:21:57.607Z,24.70
2018-09-11T19:24:25.962Z,24.70
2018-09-11T19:26:54.287Z,24.60
2018-09-11T19:29:22.579Z,24.50
2018-09-11T19:31:50.845Z,24.40
2018-09-11T19:34:24.035Z,24.30
2018-09-11T19:36:57.585Z,24.20
2018-09-11T19:39:30.377Z,24.10
2018-09-11T19:42:31.762Z,24.00
2018-09-11T19:45:27.723Z,23.80
2018-09-11T19:50:57.919Z,23.60
2018-09-11T19:53:35.721Z,23.50
2018-09-11T19:56:15.702Z,23.40
2018-09-11T20:02:16.416Z,23.10
2018-09-11T20:04:49.345Z,23.10
2018-09-11T20:07:18.159Z,23.00
2018-09-11T20:09:46.467Z,23.00
2018-09-11T20:12:15.248Z,23.00
2018-09-11T20:14:45.124Z,22.90
2018-09-11T20:17:17.196Z,22.80
2018-09-11T20:19:45.816Z,22.70
2018-09-11T20:22:14.884Z,22.60
2018-09-11T20:24:43.860Z,22.30
2018-09-11T20:27:12.551Z,22.10
2018-09-11T20:29:41.252Z,22.00
2018-09-11T20:32:14.535Z,21.90
2018-09-11T20:34:43.436Z,21.80
2018-09-11T20:37:11.970Z,21.70
2018-09-11T20:39:40.885Z,21.60
2018-09-11T20:42:09.692Z,21.50
2018-09-11T20:44:39.009Z,21.60
2018-09-11T20:47:07.465Z,21.50
2018-09-11T20:49:35.805Z,21.40
2018-09-11T20:52:04.195Z,21.40
2018-09-11T20:54:33.525Z,21.40
2018-09-11T20:57:02.043Z,21.20
2018-09-11T20:59:30.432Z,21.20
2018-09-11T21:01:58.988Z,21.20
2018-09-11T21:04:27.309Z,21.00
2018-09-11T21:06:55.636Z,21.00
2018-09-11T21:09:23.945Z,21.00
2018-09-11T21:11:52.338Z,21.00
2018-09-11T21:14:20.717Z,20.90
2018-09-11T21:16:48.993Z,20.70
2018-09-11T21:19:17.977Z,20.60
2018-09-11T21:21:46.387Z,20.70
2018-09-11T21:24:15.327Z,20.50
2018-09-11T21:26:43.758Z,20.50
2018-09-11T21:29:12.817Z,20.40
2018-09-11T21:31:41.174Z,20.40
2018-09-11T21:34:09.494Z,20.30
2018-09-11T21:36:37.813Z,20.20
2018-09-11T21:39:08.535Z,20.20
2018-09-11T21:41:37.052Z,20.20
2018-09-11T21:44:05.502Z,20.10
2018-09-11T21:46:33.924Z,20.00
2018-09-11T21:49:02.236Z,20.00
2018-09-11T21:51:30.595Z,20.00
2018-09-11T21:53:58.948Z,20.00
2018-09-11T21:56:27.320Z,20.00
2018-09-11T21:58:55.707Z,20.00
2018-09-11T22:01:29.819Z,20.00
2018-09-11T22:03:58.243Z,20.00
2018-09-11T22:06:26.820Z,19.90
2018-09-11T22:08:55.368Z,19.90
2018-09-11T22:11:30.867Z,19.80
2018-09-11T22:13:59.908Z,19.80
2018-09-11T22:16:28.731Z,19.70
2018-09-11T22:18:57.240Z,19.60
2018-09-11T22:21:25.573Z,19.60
2018-09-11T22:23:53.916Z,19.60
2018-09-11T22:26:22.295Z,19.60
2018-09-11T22:28:50.737Z,19.60
2018-09-11T22:31:19.300Z,19.50
2018-09-11T22:33:47.705Z,19.50
2018-09-11T22:36:16.053Z,19.40
2018-09-11T22:38:44.461Z,19.50
2018-09-11T22:41:12.841Z,19.40
2018-09-11T22:43:41.186Z,19.30
2018-09-11T22:46:09.568Z,19.30
2018-09-11T22:48:37.949Z,19.30
2018-09-11T22:51:06.931Z,19.30
2018-09-11T22:53:35.402Z,19.30
2018-09-11T22:56:03.832Z,19.20
2018-09-11T22:58:32.172Z,19.20
2018-09-11T23:01:00.513Z,19.10
2018-09-11T23:03:28.996Z,19.10
2018-09-11T23:05:57.475Z,19.10
2018-09-11T23:08:25.844Z,19.00
2018-09-11T23:10:54.235Z,18.90
2018-09-11T23:13:22.665Z,18.80
2018-09-11T23:15:51.012Z,18.90
2018-09-11T23:18:19.368Z,18.90
2018-09-11T23:20:47.784Z,18.80
2018-09-11T23:23:16.182Z,18.80
2018-09-11T23:25:44.646Z,18.80
2018-09-11T23:28:13.083Z,18.70
2018-09-11T23:30:41.557Z,18.70
2018-09-11T23:33:09.942Z,18.70
2018-09-11T23:35:38.299Z,18.70
2018-09-11T23:38:06.649Z,18.60
2018-09-11T23:40:35.055Z,18.50
2018-09-11T23:43:03.479Z,18.50
2018-09-11T23:45:31.887Z,18.50
2018-09-11T23:48:00.355Z,18.50
2018-09-11T23:50:28.813Z,18.40
2018-09-11T23:52:57.217Z,18.40
2018-09-11T23:55:25.691Z,18.40
2018-09-11T23:57:54.156Z,18.30
